Time;durP1;ratioP1;P1;durP2;ratioP2;P2;SDS_P1;SDS_P2;PMS_P1;PMS_P2;Temp;Humidity;BMP_temperature;BMP_pressure;BME280_temperature;BME280_humidity;BME280_pressure;Samples;Min_cycle;Max_cycle;Signal;HPM_P1;HPM_P2
2021/07/06 00:01:26;;;;;;;4.00;3.10;;;20.90;87.80;;;;;;4954445;29;20510;-83
2021/07/06 00:03:53;;;;;;;4.88;3.20;;;20.90;88.10;;;;;;4954160;28;20031;-84
2021/07/06 00:06:19;;;;;;;3.70;2.88;;;20.90;88.40;;;;;;4953977;28;20027;-81
2021/07/06 00:08:45;;;;;;;4.32;3.15;;;20.70;89.60;;;;;;4953936;28;20089;-81
2021/07/06 00:11:11;;;;;;;4.68;2.90;;;20.60;90.10;;;;;;4954070;29;20395;-84
2021/07/06 00:13:37;;;;;;;3.40;2.95;;;20.50;90.70;;;;;;4953820;29;20038;-83
2021/07/06 00:16:03;;;;;;;5.07;3.65;;;20.50;90.80;;;;;;4953995;29;20019;-85
2021/07/06 00:18:29;;;;;;;3.65;2.85;;;20.50;90.80;;;;;;4954141;29;20027;-84
2021/07/06 00:20:55;;;;;;;3.10;2.72;;;20.50;90.70;;;;;;4953835;29;20368;-80
2021/07/06 00:23:21;;;;;;;6.13;3.78;;;20.40;90.80;;;;;;4953864;28;20035;-80
2021/07/06 00:25:47;;;;;;;3.30;2.95;;;20.40;91.10;;;;;;4953746;29;20034;-80
2021/07/06 00:28:13;;;;;;;5.47;3.22;;;20.30;91.50;;;;;;4954115;29;20039;-79
2021/07/06 00:30:39;;;;;;;5.07;3.08;;;20.20;91.90;;;;;;4953786;29;20053;-80
2021/07/06 00:33:05;;;;;;;5.47;3.58;;;20.10;92.10;;;;;;4953814;29;20023;-78
2021/07/06 00:35:31;;;;;;;4.00;3.00;;;20.00;92.30;;;;;;4953912;28;20026;-78
2021/07/06 00:37:56;;;;;;;4.93;3.50;;;20.00;92.60;;;;;;4954097;29;20028;-76
2021/07/06 00:40:22;;;;;;;6.68;3.30;;;20.00;92.80;;;;;;4953715;29;20364;-78
2021/07/06 00:42:49;;;;;;;3.88;3.20;;;19.90;93.10;;;;;;4953926;28;20106;-78
2021/07/06 00:45:16;;;;;;;4.60;3.53;;;19.90;93.10;;;;;;4953984;28;20087;-77
2021/07/06 00:47:43;;;;;;;3.20;2.78;;;19.90;93.00;;;;;;4953437;28;20479;-78
2021/07/06 00:50:16;;;;;;;4.57;3.38;;;19.90;92.90;;;;;;4954002;28;20032;-78
2021/07/06 00:52:42;;;;;;;5.65;3.15;;;19.80;93.50;;;;;;4953226;28;20063;-75
2021/07/06 00:55:08;;;;;;;4.10;3.08;;;19.70;94.00;;;;;;4953708;28;20510;-77
2021/07/06 00:57:34;;;;;;;3.78;3.40;;;19.60;94.40;;;;;;4956493;28;20027;-78
2021/07/06 01:00:09;;;;;;;3.50;3.03;;;19.50;94.60;;;;;;4957336;29;20024;-78
2021/07/06 01:02:35;;;;;;;4.38;3.35;;;19.50;94.80;;;;;;4957128;28;20075;-79
2021/07/06 01:05:02;;;;;;;3.50;2.95;;;19.50;94.60;;;;;;4957596;29;20031;-79
2021/07/06 01:07:28;;;;;;;6.72;3.33;;;19.50;95.00;;;;;;4957063;28;20455;-79
2021/07/06 01:09:54;;;;;;;5.75;3.53;;;19.40;95.40;;;;;;4956889;29;20023;-79
2021/07/06 01:12:20;;;;;;;4.78;2.90;;;19.30;95.70;;;;;;4957255;29;20110;-78
2021/07/06 01:14:46;;;;;;;5.15;3.60;;;19.30;95.80;;;;;;4957021;28;20483;-79
2021/07/06 01:53:21;;;;;;;5.85;3.97;;;19.10;98.40;;;;;;5308035;23;20086;-79
2021/07/06 01:55:49;;;;;;;4.03;3.63;;;19.10;98.60;;;;;;4995081;28;20469;-78
2021/07/06 01:58:18;;;;;;;5.25;3.60;;;19.00;99.00;;;;;;4993551;28;20481;-80
2021/07/06 02:00:55;;;;;;;4.70;3.72;;;19.00;99.20;;;;;;4994787;28;20121;-80
2021/07/06 02:03:22;;;;;;;4.80;3.78;;;19.10;99.30;;;;;;4994675;28;20109;-80
2021/07/06 02:05:53;;;;;;;6.50;4.10;;;19.10;99.30;;;;;;4994829;28;20473;-80
2021/07/06 02:08:20;;;;;;;6.65;3.80;;;19.10;99.80;;;;;;4993293;28;20042;-79
2021/07/06 02:10:49;;;;;;;4.97;4.03;;;19.00;99.90;;;;;;4995026;28;20385;-79
2021/07/06 02:13:18;;;;;;;9.82;4.25;;;19.00;99.90;;;;;;4994625;28;20106;-81
2021/07/06 02:15:45;;;;;;;5.88;4.43;;;18.90;99.90;;;;;;4994755;28;20037;-81
2021/07/06 02:18:22;;;;;;;6.20;4.45;;;18.80;99.90;;;;;;4994468;28;20085;-79
2021/07/06 02:20:49;;;;;;;9.93;4.10;;;18.90;99.90;;;;;;4994637;28;20076;-78
2021/07/06 02:23:15;;;;;;;6.90;4.10;;;18.90;99.90;;;;;;4994523;28;20066;-79
2021/07/06 02:25:42;;;;;;;7.22;4.43;;;18.90;99.90;;;;;;4994827;28;20362;-78
2021/07/06 02:28:08;;;;;;;6.80;4.05;;;18.90;99.90;;;;;;4994141;28;20379;-79
2021/07/06 02:30:35;;;;;;;6.30;3.95;;;18.90;99.90;;;;;;4994423;28;20133;-80
2021/07/06 02:33:00;;;;;;;6.53;4.38;;;18.90;99.90;;;;;;4994380;28;20026;-79
2021/07/06 02:35:27;;;;;;;6.35;4.38;;;18.90;99.90;;;;;;4994432;28;20022;-79
2021/07/06 02:37:54;;;;;;;4.85;4.13;;;19.00;99.90;;;;;;4994521;28;20034;-79
2021/07/06 02:40:20;;;;;;;7.05;4.10;;;19.00;99.90;;;;;;4994065;28;20026;-79
2021/07/06 02:42:46;;;;;;;9.75;4.32;;;19.10;99.90;;;;;;4994099;28;20034;-78
2021/07/06 02:45:14;;;;;;;7.13;4.75;;;19.10;99.90;;;;;;4994034;28;20112;-79
2021/07/06 02:47:40;;;;;;;8.77;4.05;;;19.20;99.90;;;;;;4994028;28;20502;-78
2021/07/06 02:50:07;;;;;;;7.75;3.85;;;19.30;99.90;;;;;;4993995;28;20054;-78
2021/07/06 02:52:33;;;;;;;7.18;4.20;;;19.40;99.90;;;;;;4993473;28;20065;-78
2021/07/06 02:54:59;;;;;;;7.82;3.92;;;19.70;99.90;;;;;;4994033;28;20026;-79
2021/07/06 02:57:34;;;;;;;7.38;4.20;;;19.90;99.90;;;;;;4994104;28;20030;-79
2021/07/06 03:00:15;;;;;;;4.57;4.07;;;20.10;99.90;;;;;;4994017;28;20033;-78
2021/07/06 03:02:41;;;;;;;;;;;20.20;99.90;;;;;;4994658;28;20037;-76
2021/07/06 03:05:10;;;;;;;5.05;3.70;;;20.30;99.90;;;;;;4994090;28;19906;-76
2021/07/06 03:07:37;;;;;;;5.10;3.53;;;20.40;99.80;;;;;;4993802;28;20117;-75
2021/07/06 03:10:05;;;;;;;4.60;3.75;;;20.40;99.90;;;;;;4994017;28;20173;-76
2021/07/06 03:12:31;;;;;;;6.97;4.22;;;20.50;99.80;;;;;;4993489;28;20110;-76
2021/07/06 03:14:57;;;;;;;6.18;3.30;;;20.60;99.50;;;;;;4994018;28;20038;-76
2021/07/06 03:17:22;;;;;;;4.78;3.85;;;20.70;99.40;;;;;;4993322;28;20079;-75
2021/07/06 03:19:48;;;;;;;7.10;3.45;;;20.80;99.70;;;;;;4993414;28;20034;-76
2021/07/06 03:22:14;;;;;;;5.68;3.90;;;20.90;99.80;;;;;;4993624;28;20026;-75
2021/07/06 03:24:40;;;;;;;5.10;4.18;;;21.20;99.90;;;;;;4993396;28;20027;-76
2021/07/06 03:27:05;;;;;;;4.93;3.67;;;21.50;99.50;;;;;;4993691;28;20085;-80
2021/07/06 03:29:31;;;;;;;4.28;3.47;;;21.90;98.80;;;;;;4993486;28;20570;-81
2021/07/06 03:31:57;;;;;;;7.30;3.85;;;22.20;97.70;;;;;;4993358;28;20049;-80
2021/07/06 03:34:23;;;;;;;4.20;3.40;;;22.60;96.80;;;;;;4993006;28;20038;-80
2021/07/06 03:36:49;;;;;;;4.65;3.50;;;22.90;95.20;;;;;;4993371;28;20449;-80
2021/07/06 03:39:15;;;;;;;7.55;3.58;;;23.20;94.40;;;;;;4993062;28;20515;-79
2021/07/06 03:41:42;;;;;;;6.40;3.63;;;23.40;93.60;;;;;;4993357;28;20030;-80
2021/07/06 03:44:08;;;;;;;6.68;3.58;;;23.60;92.50;;;;;;4993354;28;20412;-80
2021/07/06 03:46:33;;;;;;;7.65;3.42;;;23.80;92.10;;;;;;4993143;28;20084;-80
2021/07/06 03:49:03;;;;;;;7.65;3.83;;;23.90;91.80;;;;;;4993095;28;20482;-79
2021/07/06 03:51:32;;;;;;;5.32;3.67;;;23.90;91.50;;;;;;4993071;28;20046;-79
2021/07/06 03:53:57;;;;;;;4.03;3.60;;;23.90;91.10;;;;;;4992808;28;20074;-79
2021/07/06 03:56:23;;;;;;;5.13;3.95;;;23.80;91.10;;;;;;4993057;28;20077;-80
2021/07/06 03:58:49;;;;;;;3.70;3.20;;;23.70;91.40;;;;;;4992769;28;20053;-80
2021/07/06 04:01:15;;;;;;;7.05;3.20;;;23.60;92.10;;;;;;4993020;28;20107;-77
2021/07/06 04:03:41;;;;;;;5.07;3.53;;;23.60;92.60;;;;;;4992716;28;20026;-77
2021/07/06 04:06:06;;;;;;;6.38;3.83;;;23.80;92.40;;;;;;4993028;28;20026;-77
2021/07/06 04:08:32;;;;;;;4.93;3.47;;;24.20;92.00;;;;;;4992363;28;20042;-77
2021/07/06 04:10:58;;;;;;;5.60;3.33;;;24.60;91.10;;;;;;4992563;28;20032;-77
2021/07/06 04:13:24;;;;;;;5.15;3.53;;;25.00;90.00;;;;;;4992443;28;20124;-77
2021/07/06 04:15:49;;;;;;;6.60;3.40;;;25.20;87.50;;;;;;4992742;28;20026;-77
2021/07/06 04:18:15;;;;;;;3.60;3.30;;;25.30;87.40;;;;;;4992533;28;20030;-77
2021/07/06 04:20:41;;;;;;;5.35;3.50;;;25.20;86.80;;;;;;4992917;28;20102;-81
2021/07/06 04:23:07;;;;;;;7.00;3.10;;;25.00;86.50;;;;;;4992588;28;20026;-81
2021/07/06 04:25:35;;;;;;;5.60;3.63;;;24.80;88.30;;;;;;4992758;28;20040;-80
2021/07/06 04:28:01;;;;;;;5.45;3.65;;;24.60;89.30;;;;;;4992802;28;20046;-76
2021/07/06 04:30:26;;;;;;;10.75;3.63;;;24.60;90.00;;;;;;4992450;28;20437;-76
2021/07/06 04:32:52;;;;;;;8.27;3.67;;;24.80;90.70;;;;;;4996279;28;20033;-71
2021/07/06 04:35:22;;;;;;;10.85;3.60;;;25.20;90.10;;;;;;4996295;28;20022;-71
2021/07/06 04:37:48;;;;;;;5.50;3.60;;;25.60;88.80;;;;;;4996472;28;20085;-70
2021/07/06 04:40:14;;;;;;;7.40;3.38;;;26.00;86.00;;;;;;4996471;28;20548;-70
2021/07/06 04:42:40;;;;;;;6.78;3.83;;;26.20;83.80;;;;;;4996811;28;20033;-70
2021/07/06 04:45:06;;;;;;;4.82;3.33;;;26.40;82.80;;;;;;4996471;28;20065;-73
2021/07/06 04:47:32;;;;;;;8.35;3.40;;;26.70;81.60;;;;;;4996104;28;20490;-72
2021/07/06 04:49:58;;;;;;;6.53;3.60;;;27.00;80.40;;;;;;4996198;28;20065;-72
2021/07/06 04:52:24;;;;;;;7.22;3.10;;;27.30;78.50;;;;;;4995853;28;20138;-75
2021/07/06 04:54:50;;;;;;;7.82;3.05;;;27.40;77.30;;;;;;4996347;28;20030;-71
2021/07/06 04:57:21;;;;;;;8.55;3.25;;;27.50;76.40;;;;;;4995934;28;20468;-73
2021/07/06 04:59:49;;;;;;;6.07;3.30;;;27.60;76.00;;;;;;4995831;28;20398;-72
2021/07/06 05:02:15;;;;;;;6.83;3.13;;;27.70;75.00;;;;;;4995825;28;20029;-71
2021/07/06 05:04:41;;;;;;;7.00;3.55;;;27.90;74.30;;;;;;4995904;28;20281;-72
2021/07/06 05:07:08;;;;;;;5.43;3.25;;;28.20;72.90;;;;;;4995970;28;20038;-72
2021/07/06 05:09:36;;;;;;;5.40;3.40;;;28.40;72.00;;;;;;4995477;28;20519;-72
2021/07/06 05:12:02;;;;;;;5.43;3.05;;;28.50;71.30;;;;;;4978620;28;20030;-72
2021/07/06 05:14:28;;;;;;;9.07;3.10;;;28.50;70.60;;;;;;4995539;28;20022;-72
2021/07/06 05:16:54;;;;;;;5.47;3.00;;;28.60;70.40;;;;;;4995947;28;20022;-72
2021/07/06 05:19:20;;;;;;;13.57;3.33;;;28.70;69.90;;;;;;4977821;28;20114;-72
2021/07/06 05:21:46;;;;;;;8.32;3.40;;;28.80;70.00;;;;;;4995629;28;20109;-72
2021/07/06 05:24:12;;;;;;;8.10;3.83;;;28.80;68.70;;;;;;4995480;28;20042;-74
2021/07/06 05:26:38;;;;;;;7.38;3.35;;;28.70;69.40;;;;;;4995305;28;20026;-76
2021/07/06 05:29:04;;;;;;;4.57;3.28;;;28.60;69.40;;;;;;4995110;28;20034;-76
2021/07/06 05:31:30;;;;;;;6.50;3.47;;;28.50;70.20;;;;;;4995418;28;20058;-75
2021/07/06 05:33:56;;;;;;;6.22;3.33;;;28.20;70.00;;;;;;4995305;28;20030;-75
2021/07/06 05:36:22;;;;;;;6.85;3.60;;;28.00;70.90;;;;;;4995147;28;20032;-75
2021/07/06 05:38:48;;;;;;;7.35;3.85;;;27.90;71.60;;;;;;4995398;28;20027;-76
2021/07/06 05:41:14;;;;;;;24.25;4.25;;;27.90;72.60;;;;;;4995305;28;20034;-75
2021/07/06 05:43:42;;;;;;;39.83;5.63;;;27.90;71.60;;;;;;4994716;28;20030;-76
2021/07/06 05:46:08;;;;;;;23.00;5.05;;;27.90;70.80;;;;;;4995252;28;20449;-76
2021/07/06 05:48:34;;;;;;;61.45;6.55;;;28.20;71.00;;;;;;4994977;28;20043;-75
2021/07/06 05:51:00;;;;;;;30.83;5.22;;;28.40;70.00;;;;;;4995266;28;20033;-75
2021/07/06 05:53:26;;;;;;;4.65;3.20;;;28.70;67.70;;;;;;4994549;28;20410;-76
2021/07/06 05:55:51;;;;;;;13.93;3.80;;;28.90;66.10;;;;;;4995080;28;20026;-75
2021/07/06 05:58:17;;;;;;;11.27;3.80;;;29.20;63.20;;;;;;4994414;28;20036;-75
2021/07/06 06:00:44;;;;;;;7.07;3.70;;;29.40;62.70;;;;;;4994823;28;20026;-76
2021/07/06 06:03:12;;;;;;;6.60;3.58;;;29.60;62.60;;;;;;4994804;28;20050;-75
2021/07/06 06:05:38;;;;;;;6.07;2.77;;;30.00;63.00;;;;;;4994809;28;20418;-73
2021/07/06 06:08:05;;;;;;;3.75;3.03;;;30.20;58.90;;;;;;4994282;28;20513;-73
2021/07/06 06:10:30;;;;;;;5.10;2.60;;;30.40;56.60;;;;;;4994517;28;20030;-74
2021/07/06 06:12:56;;;;;;;3.20;2.45;;;30.60;55.60;;;;;;4994754;28;20029;-73
2021/07/06 06:15:22;;;;;;;2.53;2.15;;;30.60;53.20;;;;;;4994512;28;20034;-78
2021/07/06 06:17:48;;;;;;;4.20;2.20;;;30.80;52.00;;;;;;4994734;28;20030;-78
2021/07/06 06:20:14;;;;;;;3.40;2.40;;;31.00;51.60;;;;;;4994567;28;20069;-89
2021/07/06 06:22:40;;;;;;;32.00;4.00;;;30.90;50.20;;;;;;4994409;28;20038;-76
2021/07/06 06:25:06;;;;;;;16.92;3.03;;;31.00;50.80;;;;;;4994155;28;20113;-76
2021/07/06 06:27:32;;;;;;;8.40;2.85;;;31.00;48.70;;;;;;4994017;28;20042;-77
2021/07/06 06:29:58;;;;;;;7.00;3.25;;;30.80;48.50;;;;;;4994438;28;20018;-77
2021/07/06 06:32:23;;;;;;;15.35;3.95;;;30.60;48.50;;;;;;4994106;28;20500;-77
2021/07/06 06:34:51;;;;;;;8.70;3.10;;;30.60;49.00;;;;;;4994159;28;20074;-76
2021/07/06 06:37:17;;;;;;;5.22;3.17;;;30.20;48.40;;;;;;4994131;28;20023;-76
2021/07/06 06:39:43;;;;;;;5.15;2.67;;;29.70;49.10;;;;;;4994027;28;20042;-76
2021/07/06 06:42:08;;;;;;;5.95;2.60;;;29.40;49.90;;;;;;4994098;28;20018;-76
2021/07/06 06:44:35;;;;;;;5.32;2.53;;;29.30;50.30;;;;;;4993775;28;20659;-76
2021/07/06 06:47:00;;;;;;;4.63;3.10;;;29.10;51.90;;;;;;4993914;28;20035;-76
2021/07/06 06:49:26;;;;;;;4.22;2.75;;;28.90;51.70;;;;;;4993732;28;20022;-77
2021/07/06 06:51:52;;;;;;;6.60;2.63;;;28.70;52.00;;;;;;4993932;28;20117;-73
2021/07/06 06:54:18;;;;;;;3.08;2.60;;;28.60;52.60;;;;;;4992995;28;20062;-75
2021/07/06 06:56:44;;;;;;;3.97;2.25;;;28.60;52.80;;;;;;4993696;28;20018;-74
2021/07/06 06:59:10;;;;;;;3.15;2.50;;;28.50;52.10;;;;;;4993750;28;20030;-74
2021/07/06 07:01:39;;;;;;;7.00;3.20;;;28.50;52.30;;;;;;4993672;28;20026;-74
2021/07/06 07:04:05;;;;;;;;;;;28.50;52.40;;;;;;4994363;28;20049;-80
2021/07/06 07:06:35;;;;;;;8.70;2.97;;;28.40;51.30;;;;;;4993512;28;20301;-80
2021/07/06 07:09:03;;;;;;;9.95;4.30;;;28.40;52.50;;;;;;4993451;28;20077;-77
2021/07/06 07:11:29;;;;;;;33.73;4.30;;;28.40;53.60;;;;;;4993488;28;20495;-79
2021/07/06 07:13:55;;;;;;;7.97;3.03;;;28.30;53.00;;;;;;4993606;28;20035;-72
2021/07/06 07:16:21;;;;;;;35.35;3.85;;;28.20;52.20;;;;;;4993449;28;20073;-73
2021/07/06 07:18:46;;;;;;;3.85;2.30;;;28.20;53.00;;;;;;4993340;28;20035;-71
2021/07/06 07:21:12;;;;;;;5.70;2.55;;;28.00;52.60;;;;;;4993241;28;20068;-72
2021/07/06 07:23:38;;;;;;;5.05;2.50;;;27.80;53.10;;;;;;4993232;28;20103;-73
2021/07/06 07:26:04;;;;;;;4.05;2.50;;;27.80;53.40;;;;;;4993634;28;20026;-73
2021/07/06 07:28:30;;;;;;;6.70;2.72;;;27.80;53.30;;;;;;4993045;28;20065;-75
2021/07/06 07:30:56;;;;;;;80.97;6.55;;;27.90;53.40;;;;;;4993455;28;20469;-77
2021/07/06 07:33:21;;;;;;;8.02;2.75;;;27.90;53.60;;;;;;4993345;28;20031;-78
2021/07/06 07:35:48;;;;;;;7.30;2.35;;;27.70;53.30;;;;;;4993082;28;20029;-78
2021/07/06 07:38:14;;;;;;;47.40;4.75;;;27.60;53.90;;;;;;4993215;28;20114;-74
2021/07/06 07:40:40;;;;;;;15.77;3.40;;;27.60;54.50;;;;;;4992345;28;20061;-72
2021/07/06 07:43:06;;;;;;;7.22;3.40;;;27.60;54.30;;;;;;4992789;28;20061;-71
2021/07/06 07:45:34;;;;;;;9.57;3.25;;;27.60;54.90;;;;;;4992202;28;20022;-73
2021/07/06 07:48:00;;;;;;;10.15;3.17;;;27.50;55.00;;;;;;4992243;28;20042;-73
2021/07/06 07:50:26;;;;;;;6.72;3.10;;;27.50;55.10;;;;;;4992788;28;20030;-73
2021/07/06 07:52:51;;;;;;;5.90;3.28;;;27.50;55.70;;;;;;4992539;28;20450;-73
2021/07/06 07:55:17;;;;;;;10.07;3.70;;;27.50;55.70;;;;;;4992286;28;20030;-72
2021/07/06 07:57:43;;;;;;;6.38;3.00;;;27.50;55.90;;;;;;4992434;28;20110;-73
2021/07/06 08:00:11;;;;;;;5.90;3.03;;;27.60;56.20;;;;;;4992274;28;20030;-74
2021/07/06 08:02:37;;;;;;;5.28;3.15;;;27.80;56.30;;;;;;4992450;28;20029;-73
2021/07/06 08:05:03;;;;;;;10.43;3.28;;;27.80;55.50;;;;;;4992589;28;20023;-72
2021/07/06 08:07:30;;;;;;;101.32;9.73;;;27.90;55.90;;;;;;4992763;28;20113;-72
2021/07/06 08:09:56;;;;;;;6.88;3.30;;;27.80;56.00;;;;;;4992488;28;20057;-72
2021/07/06 08:12:22;;;;;;;14.48;4.03;;;27.80;56.50;;;;;;4992620;28;20026;-72
2021/07/06 08:14:50;;;;;;;6.78;3.50;;;27.90;56.50;;;;;;4992137;28;20549;-73
2021/07/06 08:17:17;;;;;;;9.18;3.47;;;28.10;56.70;;;;;;4992349;28;20038;-71
2021/07/06 08:19:42;;;;;;;5.82;3.10;;;28.20;55.90;;;;;;4992246;28;20505;-71
2021/07/06 08:22:08;;;;;;;11.30;5.15;;;28.40;55.40;;;;;;4992366;28;20049;-72
2021/07/06 08:24:34;;;;;;;19.67;4.20;;;28.30;55.40;;;;;;4992210;28;20470;-72
2021/07/06 08:27:00;;;;;;;63.63;5.90;;;28.20;55.30;;;;;;4992342;28;20030;-73
2021/07/06 08:29:27;;;;;;;36.50;5.40;;;28.10;55.30;;;;;;4992080;28;20117;-74
2021/07/06 08:31:53;;;;;;;6.07;2.60;;;28.10;55.60;;;;;;4992367;28;20026;-74
2021/07/06 08:34:19;;;;;;;3.80;2.55;;;28.20;55.80;;;;;;4992410;28;20386;-73
2021/07/06 08:36:45;;;;;;;175.73;16.88;;;28.20;56.10;;;;;;4992460;28;20027;-74
2021/07/06 08:39:11;;;;;;;51.30;5.30;;;28.20;56.50;;;;;;4992299;28;20173;-74
2021/07/06 08:41:39;;;;;;;10.68;3.30;;;28.30;57.30;;;;;;4992277;28;20022;-73
2021/07/06 08:44:05;;;;;;;12.38;3.25;;;28.30;56.20;;;;;;4991698;28;20030;-73
2021/07/06 08:46:35;;;;;;;13.98;2.78;;;28.30;56.00;;;;;;4992179;28;20022;-73
2021/07/06 08:49:01;;;;;;;;;;;28.30;56.10;;;;;;4992654;28;20070;-73
2021/07/06 08:51:30;;;;;;;9.25;3.10;;;28.20;55.40;;;;;;4992406;28;19905;-73
2021/07/06 08:53:56;;;;;;;7.50;2.60;;;28.10;55.80;;;;;;4991994;28;20074;-73
2021/07/06 08:56:21;;;;;;;19.30;3.15;;;28.10;56.00;;;;;;4992167;28;20106;-74
2021/07/06 08:58:47;;;;;;;7.75;2.80;;;28.10;56.10;;;;;;4991234;28;20104;-73
2021/07/06 09:01:13;;;;;;;16.25;2.85;;;28.20;56.60;;;;;;4991770;28;20143;-72
2021/07/06 09:03:53;;;;;;;18.00;2.80;;;28.30;56.70;;;;;;4994235;28;20474;-73
2021/07/06 09:06:20;;;;;;;6.40;3.05;;;28.20;56.00;;;;;;4993672;28;20033;-72
2021/07/06 09:08:51;;;;;;;5.57;2.58;;;28.10;56.60;;;;;;4991929;28;20490;-71
2021/07/06 09:11:17;;;;;;;5.65;2.60;;;28.10;57.10;;;;;;4991989;28;20033;-72
2021/07/06 09:13:43;;;;;;;9.20;2.63;;;28.20;57.50;;;;;;4990866;28;20402;-72
2021/07/06 09:16:19;;;;;;;6.78;3.10;;;28.20;57.10;;;;;;4991650;28;20682;-72
2021/07/06 09:18:47;;;;;;;6.68;3.00;;;28.10;56.50;;;;;;4994919;28;20049;-72
2021/07/06 09:21:13;;;;;;;8.93;2.83;;;28.00;56.70;;;;;;4995472;28;20038;-72
2021/07/06 09:23:49;;;;;;;8.63;2.90;;;27.90;56.90;;;;;;4995362;28;20026;-72
2021/07/06 09:26:30;;;;;;;6.32;3.03;;;28.00;57.80;;;;;;4993434;28;20084;-71
2021/07/06 09:29:00;;;;;;;7.70;3.17;;;28.10;56.50;;;;;;4994502;28;20038;-71
2021/07/06 09:31:31;;;;;;;10.70;2.80;;;28.10;56.90;;;;;;4995003;28;20109;-71
2021/07/06 09:34:09;;;;;;;6.18;3.00;;;28.30;56.40;;;;;;4993314;28;20030;-71
2021/07/06 09:36:45;;;;;;;8.60;3.60;;;28.50;55.20;;;;;;4995239;28;20105;-71
2021/07/06 09:39:23;;;;;;;10.98;3.03;;;28.50;54.60;;;;;;5005885;28;20033;-70
2021/07/06 09:42:01;;;;;;;5.85;3.10;;;28.50;55.80;;;;;;5004909;28;20022;-78
2021/07/06 09:44:32;;;;;;;10.83;3.40;;;28.30;55.30;;;;;;5015358;28;20461;-72
2021/07/06 09:47:01;;;;;;;11.27;2.90;;;28.30;56.70;;;;;;5010692;28;20069;-71
2021/07/06 09:49:33;;;;;;;7.18;2.95;;;28.40;56.60;;;;;;4994120;28;20034;-71
2021/07/06 09:52:13;;;;;;;59.42;6.43;;;28.30;55.90;;;;;;4994476;28;20030;-71
2021/07/06 09:54:44;;;;;;;30.30;4.75;;;28.20;56.40;;;;;;4993343;28;20109;-71
2021/07/06 09:57:25;;;;;;;18.27;4.05;;;28.30;56.80;;;;;;4987582;28;20026;-71
2021/07/06 10:00:12;;;;;;;6.32;3.30;;;28.40;56.80;;;;;;4993975;28;20022;-74
2021/07/06 10:02:40;;;;;;;16.38;4.43;;;28.50;55.80;;;;;;4993884;28;20105;-73
2021/07/06 10:05:09;;;;;;;11.20;4.03;;;28.40;55.90;;;;;;4993734;28;20542;-74
2021/07/06 10:07:36;;;;;;;13.35;3.88;;;28.40;55.90;;;;;;4993766;28;20046;-74
2021/07/06 10:10:08;;;;;;;5.55;3.20;;;28.40;56.00;;;;;;4993496;28;20022;-74
2021/07/06 10:12:39;;;;;;;5.10;3.30;;;28.30;56.70;;;;;;4993497;28;20061;-74
2021/07/06 10:15:09;;;;;;;7.05;3.22;;;28.40;56.70;;;;;;4993687;28;20084;-74
2021/07/06 10:17:37;;;;;;;5.82;3.90;;;28.40;57.20;;;;;;4993653;28;20034;-74
2021/07/06 10:20:06;;;;;;;8.55;3.30;;;28.40;56.60;;;;;;4993362;28;20058;-74
2021/07/06 10:22:32;;;;;;;8.57;3.42;;;28.30;56.70;;;;;;4993568;28;20382;-73
2021/07/06 10:25:01;;;;;;;13.95;4.28;;;28.40;57.70;;;;;;4993518;28;20026;-73
2021/07/06 10:27:32;;;;;;;9.90;3.10;;;28.50;57.20;;;;;;4993211;28;20129;-73
2021/07/06 10:30:08;;;;;;;4.05;2.90;;;28.60;55.90;;;;;;4992503;28;20026;-73
2021/07/06 10:32:53;;;;;;;5.72;3.65;;;28.50;55.50;;;;;;4993141;28;20069;-73
2021/07/06 10:35:39;;;;;;;10.25;3.10;;;28.60;55.90;;;;;;4993201;28;20015;-74
2021/07/06 10:38:27;;;;;;;7.95;3.35;;;28.60;56.10;;;;;;4993161;28;20049;-75
2021/07/06 10:40:54;;;;;;;17.92;4.22;;;28.70;56.30;;;;;;4992984;28;20114;-74
2021/07/06 10:43:40;;;;;;;3.65;3.08;;;28.80;56.30;;;;;;4993228;28;20029;-74
2021/07/06 10:46:21;;;;;;;13.95;3.47;;;28.90;55.20;;;;;;4993258;28;20030;-74
2021/07/06 10:48:48;;;;;;;27.42;4.22;;;29.00;55.70;;;;;;4992901;28;20035;-74
2021/07/06 10:51:36;;;;;;;40.33;5.72;;;29.00;56.60;;;;;;4992756;28;20057;-74
2021/07/06 10:54:04;;;;;;;8.77;2.90;;;29.00;58.90;;;;;;4950347;28;1248771;-74
2021/07/06 10:56:42;;;;;;;10.40;3.50;;;28.90;58.30;;;;;;4993885;28;20034;-74
2021/07/06 10:59:25;;;;;;;5.15;3.25;;;28.80;58.70;;;;;;4994054;28;20069;-74
2021/07/06 11:01:53;;;;;;;18.33;3.60;;;28.70;59.30;;;;;;4993642;28;20044;-74
2021/07/06 11:04:38;;;;;;;6.00;2.65;;;28.70;60.50;;;;;;4993801;28;20054;-74
2021/07/06 11:07:06;;;;;;;13.02;3.45;;;28.80;61.00;;;;;;4993604;28;20089;-74
2021/07/06 11:09:33;;;;;;;10.43;2.80;;;28.80;61.30;;;;;;4993602;28;20057;-74
2021/07/06 11:12:25;;;;;;;7.88;3.28;;;28.70;62.80;;;;;;4993511;28;20040;-74
2021/07/06 11:14:58;;;;;;;11.35;3.40;;;28.70;62.10;;;;;;4993623;28;20038;-74
2021/07/06 11:17:35;;;;;;;14.13;2.97;;;28.60;61.20;;;;;;4993627;28;20061;-74
2021/07/06 11:20:07;;;;;;;21.75;5.60;;;28.70;58.90;;;;;;4993406;28;20045;-74
2021/07/06 11:22:51;;;;;;;4.55;3.35;;;28.70;57.50;;;;;;4993444;28;20080;-75
2021/07/06 11:25:20;;;;;;;45.45;6.25;;;28.70;57.20;;;;;;4993619;28;20046;-74
2021/07/06 11:28:03;;;;;;;8.82;4.00;;;28.70;56.60;;;;;;4993262;28;20133;-74
2021/07/06 11:30:32;;;;;;;12.32;5.60;;;28.80;56.10;;;;;;4993151;28;20034;-75
2021/07/06 11:33:25;;;;;;;8.75;3.80;;;28.90;56.40;;;;;;4993090;28;20181;-74
2021/07/06 11:35:53;;;;;;;174.32;12.98;;;28.90;55.30;;;;;;4993350;28;20478;-74
2021/07/06 11:38:22;;;;;;;15.32;3.90;;;28.90;54.40;;;;;;4993268;28;20030;-74
2021/07/06 11:40:51;;;;;;;5.30;3.17;;;28.80;53.60;;;;;;4992071;28;20034;-75
2021/07/06 11:43:19;;;;;;;12.13;3.85;;;28.80;54.30;;;;;;4993027;28;20022;-74
2021/07/06 11:46:01;;;;;;;7.18;3.22;;;28.70;53.40;;;;;;4992393;28;20030;-74
2021/07/06 11:48:48;;;;;;;13.30;4.85;;;28.70;54.80;;;;;;4992262;28;20038;-72
2021/07/06 11:51:17;;;;;;;23.88;3.50;;;28.70;52.90;;;;;;4992154;28;20026;-72
2021/07/06 11:53:53;;;;;;;6.75;3.42;;;28.70;55.40;;;;;;4992041;28;20057;-72
2021/07/06 11:56:23;;;;;;;9.18;3.40;;;28.60;55.20;;;;;;4992579;28;20026;-72
2021/07/06 11:58:49;;;;;;;16.08;4.10;;;28.50;56.20;;;;;;4992678;28;20034;-75
2021/07/06 12:01:15;;;;;;;5.20;3.22;;;28.40;57.30;;;;;;4992608;28;20022;-73
2021/07/06 12:03:42;;;;;;;5.55;3.20;;;28.40;56.20;;;;;;4992518;28;20026;-72
2021/07/06 12:06:12;;;;;;;10.45;3.30;;;28.40;56.30;;;;;;4992902;28;20437;-73
2021/07/06 12:08:48;;;;;;;7.10;3.80;;;28.40;56.90;;;;;;4992384;28;20384;-73
2021/07/06 12:11:18;;;;;;;6.10;3.83;;;28.30;57.30;;;;;;4992837;28;20442;-72
2021/07/06 12:13:43;;;;;;;11.32;4.03;;;28.30;57.40;;;;;;4975051;28;20034;-73
2021/07/06 12:16:12;;;;;;;7.78;3.83;;;28.20;58.50;;;;;;4992570;28;20022;-73
2021/07/06 12:18:57;;;;;;;8.35;3.88;;;28.20;58.70;;;;;;4992376;28;20129;-73
2021/07/06 12:21:31;;;;;;;8.50;3.92;;;28.20;58.20;;;;;;4992358;28;20084;-73
2021/07/06 12:24:07;;;;;;;11.85;4.38;;;28.20;58.20;;;;;;4992211;28;20033;-72
2021/07/06 12:26:35;;;;;;;36.22;6.35;;;28.20;58.70;;;;;;4992737;28;20030;-72
2021/07/06 12:29:01;;;;;;;18.65;4.60;;;28.20;58.70;;;;;;4992476;28;20041;-73
2021/07/06 12:31:27;;;;;;;13.18;4.20;;;28.30;58.70;;;;;;4992554;28;20022;-73
2021/07/06 12:34:06;;;;;;;10.20;4.35;;;28.30;58.90;;;;;;5011731;28;20503;-72
2021/07/06 12:36:56;;;;;;;12.65;3.90;;;28.30;58.70;;;;;;5012118;28;20068;-73
2021/07/06 12:39:26;;;;;;;11.18;4.05;;;28.20;58.50;;;;;;5011760;28;20092;-73
2021/07/06 12:41:56;;;;;;;12.35;5.13;;;28.20;58.40;;;;;;5011816;28;20497;-73
2021/07/06 12:44:36;;;;;;;10.90;4.50;;;28.20;58.10;;;;;;5011898;28;20393;-73
2021/07/06 12:47:15;;;;;;;8.43;4.38;;;28.20;58.20;;;;;;5011784;28;20501;-73
2021/07/06 12:49:47;;;;;;;10.07;3.97;;;28.20;57.60;;;;;;5011744;28;20490;-73
2021/07/06 12:52:13;;;;;;;5.85;3.78;;;28.20;57.10;;;;;;5012621;28;20497;-72
2021/07/06 12:54:41;;;;;;;6.88;3.85;;;28.20;57.90;;;;;;5015731;28;20505;-73
2021/07/06 12:57:24;;;;;;;6.65;3.72;;;28.20;57.00;;;;;;5015655;28;20026;-73
2021/07/06 12:59:50;;;;;;;6.68;4.20;;;28.20;54.10;;;;;;5015426;28;20101;-73
2021/07/06 13:02:21;;;;;;;19.67;4.97;;;28.20;55.80;;;;;;5015696;28;20117;-76
2021/07/06 13:04:59;;;;;;;10.73;3.63;;;28.20;55.60;;;;;;5015329;28;20470;-74
2021/07/06 13:07:30;;;;;;;18.50;4.72;;;28.30;55.90;;;;;;5015636;28;20130;-73
2021/07/06 13:10:24;;;;;;;12.63;3.63;;;28.30;54.70;;;;;;5004695;28;20453;-73
2021/07/06 13:13:02;;;;;;;14.40;4.38;;;28.40;52.70;;;;;;4995659;28;20019;-73
2021/07/06 13:15:32;;;;;;;28.38;4.35;;;28.50;51.70;;;;;;4995691;28;20478;-73
2021/07/06 13:17:58;;;;;;;12.90;3.65;;;28.50;51.30;;;;;;4995600;28;20030;-73
2021/07/06 13:20:25;;;;;;;8.05;3.90;;;28.60;50.80;;;;;;4995570;28;20113;-73
2021/07/06 13:22:58;;;;;;;6.30;3.85;;;28.60;50.60;;;;;;4977970;28;20027;-73
2021/07/06 13:25:24;;;;;;;5.15;3.55;;;28.60;50.60;;;;;;4995359;28;20105;-73
2021/07/06 13:27:57;;;;;;;9.60;4.00;;;28.60;50.60;;;;;;4995607;28;20041;-73
2021/07/06 13:30:23;;;;;;;6.40;3.90;;;28.60;50.50;;;;;;4995714;28;20034;-73